sensor_id;sensor_type;location;lat;lon;timestamp;pressure;altitude;pressure_sealevel;temperature;humidity
71105;BME280;58760;48.716;8.962;2023-04-01T00:01:44;95161.00;;;7.52;90.22
71105;BME280;58760;48.716;8.962;2023-04-01T00:04:09;95165.91;;;7.55;90.13
71105;BME280;58760;48.716;8.962;2023-04-01T00:06:35;95160.91;;;7.60;89.67
71105;BME280;58760;48.716;8.962;2023-04-01T00:09:00;95159.53;;;7.64;89.01
71105;BME280;58760;48.716;8.962;2023-04-01T00:11:26;95154.75;;;7.53;90.13
71105;BME280;58760;48.716;8.962;2023-04-01T00:13:53;95165.91;;;7.55;89.92
71105;BME280;58760;48.716;8.962;2023-04-01T00:16:18;95150.06;;;7.55;89.76
71105;BME280;58760;48.716;8.962;2023-04-01T00:18:44;95151.72;;;7.56;89.46
71105;BME280;58760;48.716;8.962;2023-04-01T00:21:12;95154.19;;;7.57;89.42
71105;BME280;58760;48.716;8.962;2023-04-01T00:23:37;95152.00;;;7.61;88.61
71105;BME280;58760;48.716;8.962;2023-04-01T00:26:03;95161.53;;;7.62;88.70
71105;BME280;58760;48.716;8.962;2023-04-01T00:28:29;95158.31;;;7.66;88.51
71105;BME280;58760;48.716;8.962;2023-04-01T00:30:54;95167.88;;;7.67;88.78
71105;BME280;58760;48.716;8.962;2023-04-01T00:33:19;95172.53;;;7.65;89.96
71105;BME280;58760;48.716;8.962;2023-04-01T00:35:45;95165.66;;;7.71;90.83
71105;BME280;58760;48.716;8.962;2023-04-01T00:38:11;95170.09;;;7.64;90.82
71105;BME280;58760;48.716;8.962;2023-04-01T00:40:44;95165.97;;;7.61;91.76
71105;BME280;58760;48.716;8.962;2023-04-01T00:43:17;95165.53;;;7.58;91.45
71105;BME280;58760;48.716;8.962;2023-04-01T00:45:45;95169.81;;;7.59;92.31
71105;BME280;58760;48.716;8.962;2023-04-01T00:48:16;95170.81;;;7.58;92.32
71105;BME280;58760;48.716;8.962;2023-04-01T00:50:45;95179.00;;;7.63;92.61
71105;BME280;58760;48.716;8.962;2023-04-01T00:53:11;95181.03;;;7.61;93.03
71105;BME280;58760;48.716;8.962;2023-04-01T00:55:39;95178.81;;;7.64;93.86
71105;BME280;58760;48.716;8.962;2023-04-01T00:58:09;95175.31;;;7.57;93.63
71105;BME280;58760;48.716;8.962;2023-04-01T01:00:37;95162.91;;;7.58;93.95
71105;BME280;58760;48.716;8.962;2023-04-01T01:03:03;95161.66;;;7.54;94.23
71105;BME280;58760;48.716;8.962;2023-04-01T01:08:25;95166.28;;;7.52;95.20
71105;BME280;58760;48.716;8.962;2023-04-01T01:10:55;95165.75;;;7.56;94.93
71105;BME280;58760;48.716;8.962;2023-04-01T01:13:40;95173.84;;;7.55;95.72
71105;BME280;58760;48.716;8.962;2023-04-01T01:16:20;95171.97;;;7.70;94.57
71105;BME280;58760;48.716;8.962;2023-04-01T01:19:00;95169.81;;;7.59;95.34
71105;BME280;58760;48.716;8.962;2023-04-01T01:27:00;95165.53;;;7.58;94.32
71105;BME280;58760;48.716;8.962;2023-04-01T01:29:35;95176.84;;;7.52;94.98
71105;BME280;58760;48.716;8.962;2023-04-01T01:35:47;95186.22;;;7.54;94.20
71105;BME280;58760;48.716;8.962;2023-04-01T01:38:16;95183.00;;;7.59;92.77
71105;BME280;58760;48.716;8.962;2023-04-01T01:40:47;95164.31;;;7.54;93.94
71105;BME280;58760;48.716;8.962;2023-04-01T01:43:16;95171.56;;;7.52;94.14
71105;BME280;58760;48.716;8.962;2023-04-01T01:45:47;95177.22;;;7.49;93.08
71105;BME280;58760;48.716;8.962;2023-04-01T01:48:14;95170.56;;;7.53;93.62
71105;BME280;58760;48.716;8.962;2023-04-01T01:50:40;95171.19;;;7.55;92.98
71105;BME280;58760;48.716;8.962;2023-04-01T01:53:11;95167.31;;;7.51;93.18
71105;BME280;58760;48.716;8.962;2023-04-01T01:55:43;95167.94;;;7.53;93.25
71105;BME280;58760;48.716;8.962;2023-04-01T01:58:19;95161.66;;;7.54;92.53
71105;BME280;58760;48.716;8.962;2023-04-01T02:00:53;95158.38;;;7.52;92.76
71105;BME280;58760;48.716;8.962;2023-04-01T02:03:22;95156.81;;;7.57;91.17
71105;BME280;58760;48.716;8.962;2023-04-01T02:05:50;95158.44;;;7.58;90.89
71105;BME280;58760;48.716;8.962;2023-04-01T02:08:26;95153.16;;;7.58;90.80
71105;BME280;58760;48.716;8.962;2023-04-01T02:11:00;95148.41;;;7.47;91.69
71105;BME280;58760;48.716;8.962;2023-04-01T02:13:33;95158.56;;;7.50;91.86
71105;BME280;58760;48.716;8.962;2023-04-01T02:16:06;95158.38;;;7.52;91.00
71105;BME280;58760;48.716;8.962;2023-04-01T02:18:36;95167.31;;;7.51;90.24
71105;BME280;58760;48.716;8.962;2023-04-01T02:21:04;95176.28;;;7.56;90.74
71105;BME280;58760;48.716;8.962;2023-04-01T02:23:33;95167.88;;;7.46;91.23
71105;BME280;58760;48.716;8.962;2023-04-01T02:26:01;95172.97;;;7.48;90.65
71105;BME280;58760;48.716;8.962;2023-04-01T02:28:28;95173.59;;;7.50;89.34
71105;BME280;58760;48.716;8.962;2023-04-01T02:30:55;95174.34;;;7.44;89.91
71105;BME280;58760;48.716;8.962;2023-04-01T02:33:22;95161.31;;;7.42;89.89
71105;BME280;58760;48.716;8.962;2023-04-01T02:35:47;95151.41;;;7.44;89.56
71105;BME280;58760;48.716;8.962;2023-04-01T02:38:13;95165.16;;;7.40;90.26
71105;BME280;58760;48.716;8.962;2023-04-01T02:40:57;95166.97;;;7.39;89.67
71105;BME280;58760;48.716;8.962;2023-04-01T02:43:23;95170.81;;;7.36;89.75
71105;BME280;58760;48.716;8.962;2023-04-01T02:45:48;95169.81;;;7.38;89.73
71105;BME280;58760;48.716;8.962;2023-04-01T02:48:14;95162.66;;;7.31;89.47
71105;BME280;58760;48.716;8.962;2023-04-01T02:50:39;95164.53;;;7.38;88.85
71105;BME280;58760;48.716;8.962;2023-04-01T02:53:05;95160.81;;;7.32;89.11
71105;BME280;58760;48.716;8.962;2023-04-01T02:55:32;95156.28;;;7.26;89.34
71105;BME280;58760;48.716;8.962;2023-04-01T02:57:57;95159.56;;;7.28;89.04
71105;BME280;58760;48.716;8.962;2023-04-01T03:00:23;95168.13;;;7.15;89.45
71105;BME280;58760;48.716;8.962;2023-04-01T03:02:48;95159.28;;;7.23;89.42
71105;BME280;58760;48.716;8.962;2023-04-01T03:05:14;95166.81;;;7.26;89.76
71105;BME280;58760;48.716;8.962;2023-04-01T03:07:40;95168.47;;;7.27;89.47
71105;BME280;58760;48.716;8.962;2023-04-01T03:10:06;95162.00;;;7.29;88.17
71105;BME280;58760;48.716;8.962;2023-04-01T03:12:31;95162.56;;;7.25;89.60
71105;BME280;58760;48.716;8.962;2023-04-01T03:14:57;95158.47;;;7.22;89.22
71105;BME280;58760;48.716;8.962;2023-04-01T03:17:22;95158.75;;;7.27;88.37
71105;BME280;58760;48.716;8.962;2023-04-01T03:19:47;95158.97;;;7.11;88.96
71105;BME280;58760;48.716;8.962;2023-04-01T03:22:13;95167.19;;;7.23;89.09
71105;BME280;58760;48.716;8.962;2023-04-01T03:24:39;95160.09;;;7.23;88.61
71105;BME280;58760;48.716;8.962;2023-04-01T03:27:04;95161.41;;;7.13;88.75
71105;BME280;58760;48.716;8.962;2023-04-01T03:29:29;95171.47;;;7.24;87.32
71105;BME280;58760;48.716;8.962;2023-04-01T03:31:55;95170.66;;;7.23;87.61
71105;BME280;58760;48.716;8.962;2023-04-01T03:34:23;95165.22;;;7.25;88.12
71105;BME280;58760;48.716;8.962;2023-04-01T03:36:48;95159.50;;;7.21;86.76
71105;BME280;58760;48.716;8.962;2023-04-01T03:39:14;95164.56;;;7.23;87.63
71105;BME280;58760;48.716;8.962;2023-04-01T03:41:44;95160.72;;;7.25;87.81
71105;BME280;58760;48.716;8.962;2023-04-01T03:44:09;95151.94;;;7.18;88.13
71105;BME280;58760;48.716;8.962;2023-04-01T03:46:34;95161.22;;;7.14;87.58
71105;BME280;58760;48.716;8.962;2023-04-01T03:49:00;95145.19;;;7.16;87.47
71105;BME280;58760;48.716;8.962;2023-04-01T03:51:25;95152.66;;;7.12;87.14
71105;BME280;58760;48.716;8.962;2023-04-01T03:53:51;95157.25;;;7.04;88.27
71105;BME280;58760;48.716;8.962;2023-04-01T03:56:16;95158.16;;;6.96;87.91
71105;BME280;58760;48.716;8.962;2023-04-01T03:58:41;95149.63;;;6.94;87.62
71105;BME280;58760;48.716;8.962;2023-04-01T04:01:18;95154.72;;;6.96;88.03
71105;BME280;58760;48.716;8.962;2023-04-01T04:03:45;95139.44;;;6.91;87.59
71105;BME280;58760;48.716;8.962;2023-04-01T04:06:12;95140.72;;;6.80;88.09
71105;BME280;58760;48.716;8.962;2023-04-01T04:08:38;95142.00;;;6.84;88.58
71105;BME280;58760;48.716;8.962;2023-04-01T04:11:04;95141.19;;;6.84;88.66
71105;BME280;58760;48.716;8.962;2023-04-01T04:13:29;95145.84;;;6.82;89.37
71105;BME280;58760;48.716;8.962;2023-04-01T04:15:55;95143.38;;;6.80;88.93
71105;BME280;58760;48.716;8.962;2023-04-01T04:18:20;95146.81;;;6.81;89.23
71105;BME280;58760;48.716;8.962;2023-04-01T04:20:46;95147.28;;;6.70;90.10
71105;BME280;58760;48.716;8.962;2023-04-01T04:23:15;95155.09;;;6.63;90.49
71105;BME280;58760;48.716;8.962;2023-04-01T04:25:40;95148.53;;;6.74;89.98
71105;BME280;58760;48.716;8.962;2023-04-01T04:28:06;95157.47;;;6.73;89.91
71105;BME280;58760;48.716;8.962;2023-04-01T04:30:31;95152.91;;;6.67;90.53
71105;BME280;58760;48.716;8.962;2023-04-01T04:32:57;95158.19;;;6.67;90.77
71105;BME280;58760;48.716;8.962;2023-04-01T04:35:22;95152.81;;;6.75;90.84
71105;BME280;58760;48.716;8.962;2023-04-01T04:37:47;95149.66;;;6.79;90.45
71105;BME280;58760;48.716;8.962;2023-04-01T04:40:13;95149.91;;;6.84;90.39
71105;BME280;58760;48.716;8.962;2023-04-01T04:42:38;95145.91;;;6.74;90.69
71105;BME280;58760;48.716;8.962;2023-04-01T04:45:04;95149.38;;;6.74;91.86
71105;BME280;58760;48.716;8.962;2023-04-01T04:47:29;95151.56;;;6.71;91.70
71105;BME280;58760;48.716;8.962;2023-04-01T04:49:55;95150.03;;;6.62;92.82
71105;BME280;58760;48.716;8.962;2023-04-01T04:52:20;95152.19;;;6.58;93.10
71105;BME280;58760;48.716;8.962;2023-04-01T04:54:45;95146.47;;;6.55;93.44
71105;BME280;58760;48.716;8.962;2023-04-01T04:57:11;95145.91;;;6.45;94.30
71105;BME280;58760;48.716;8.962;2023-04-01T04:59:36;95145.47;;;6.56;94.37
71105;BME280;58760;48.716;8.962;2023-04-01T05:02:02;95144.13;;;6.60;94.05
71105;BME280;58760;48.716;8.962;2023-04-01T05:04:27;95125.03;;;6.58;94.56
71105;BME280;58760;48.716;8.962;2023-04-01T05:06:53;95132.09;;;6.57;94.82
71105;BME280;58760;48.716;8.962;2023-04-01T05:09:18;95127.13;;;6.62;94.58
71105;BME280;58760;48.716;8.962;2023-04-01T05:11:43;95123.66;;;6.62;94.55
71105;BME280;58760;48.716;8.962;2023-04-01T05:14:14;95132.47;;;6.69;94.01
71105;BME280;58760;48.716;8.962;2023-04-01T05:16:40;95123.22;;;6.73;94.25
71105;BME280;58760;48.716;8.962;2023-04-01T05:19:05;95116.66;;;6.69;94.43
71105;BME280;58760;48.716;8.962;2023-04-01T05:21:31;95114.28;;;6.74;93.83
71105;BME280;58760;48.716;8.962;2023-04-01T05:23:56;95121.91;;;6.83;93.95
71105;BME280;58760;48.716;8.962;2023-04-01T05:26:21;95115.88;;;6.90;93.68
71105;BME280;58760;48.716;8.962;2023-04-01T05:28:47;95124.69;;;6.97;92.23
71105;BME280;58760;48.716;8.962;2023-04-01T05:31:12;95111.28;;;6.92;92.99
71105;BME280;58760;48.716;8.962;2023-04-01T05:33:38;95110.16;;;7.01;93.16
71105;BME280;58760;48.716;8.962;2023-04-01T05:36:11;95100.28;;;7.09;91.49
71105;BME280;58760;48.716;8.962;2023-04-01T05:38:37;95108.78;;;7.05;91.50
71105;BME280;58760;48.716;8.962;2023-04-01T05:41:03;95113.94;;;7.13;89.01
71105;BME280;58760;48.716;8.962;2023-04-01T05:43:28;95099.53;;;7.15;87.43
71105;BME280;58760;48.716;8.962;2023-04-01T05:45:55;95114.66;;;7.21;88.00
71105;BME280;58760;48.716;8.962;2023-04-01T05:48:20;95113.00;;;7.20;87.81
71105;BME280;58760;48.716;8.962;2023-04-01T05:50:45;95110.88;;;7.30;87.03
71105;BME280;58760;48.716;8.962;2023-04-01T05:53:11;95111.38;;;7.41;85.30
71105;BME280;58760;48.716;8.962;2023-04-01T05:55:36;95106.72;;;7.43;85.75
71105;BME280;58760;48.716;8.962;2023-04-01T05:58:02;95116.34;;;7.50;84.33
71105;BME280;58760;48.716;8.962;2023-04-01T06:00:27;95114.38;;;7.59;82.68
71105;BME280;58760;48.716;8.962;2023-04-01T06:02:52;95097.22;;;7.69;83.20
71105;BME280;58760;48.716;8.962;2023-04-01T06:05:23;95098.63;;;7.65;83.10
71105;BME280;58760;48.716;8.962;2023-04-01T06:07:55;95098.06;;;7.70;83.50
71105;BME280;58760;48.716;8.962;2023-04-01T06:10:33;95098.28;;;7.75;81.88
71105;BME280;58760;48.716;8.962;2023-04-01T06:13:17;95108.22;;;7.73;82.99
71105;BME280;58760;48.716;8.962;2023-04-01T06:16:07;95095.66;;;7.75;83.25
71105;BME280;58760;48.716;8.962;2023-04-01T06:18:56;95098.72;;;7.78;83.83
71105;BME280;58760;48.716;8.962;2023-04-01T06:41:06;95095.53;;;7.83;86.12
71105;BME280;58760;48.716;8.962;2023-04-01T06:43:45;95097.28;;;7.76;85.75
71105;BME280;58760;48.716;8.962;2023-04-01T06:47:03;95095.09;;;7.79;86.75
71105;BME280;58760;48.716;8.962;2023-04-01T06:49:51;95102.47;;;7.90;86.41
71105;BME280;58760;48.716;8.962;2023-04-01T06:57:46;95117.19;;;8.00;86.28
71105;BME280;58760;48.716;8.962;2023-04-01T07:00:38;95107.19;;;7.95;84.43
71105;BME280;58760;48.716;8.962;2023-04-01T07:03:31;95111.91;;;8.00;84.96
71105;BME280;58760;48.716;8.962;2023-04-01T07:06:03;95104.97;;;7.99;85.08
71105;BME280;58760;48.716;8.962;2023-04-01T07:08:29;95101.13;;;8.01;86.14
71105;BME280;58760;48.716;8.962;2023-04-01T07:11:01;95105.81;;;7.99;85.24
71105;BME280;58760;48.716;8.962;2023-04-01T07:13:33;95106.28;;;8.09;86.17
71105;BME280;58760;48.716;8.962;2023-04-01T07:16:05;95099.09;;;8.03;85.79
71105;BME280;58760;48.716;8.962;2023-04-01T07:18:37;95109.88;;;8.02;85.57
71105;BME280;58760;48.716;8.962;2023-04-01T07:21:07;95104.78;;;8.00;85.71
71105;BME280;58760;48.716;8.962;2023-04-01T07:23:44;95111.97;;;8.06;86.48
71105;BME280;58760;48.716;8.962;2023-04-01T07:26:18;95110.31;;;8.05;86.66
71105;BME280;58760;48.716;8.962;2023-04-01T07:28:46;95120.63;;;8.00;86.42
71105;BME280;58760;48.716;8.962;2023-04-01T07:34:09;95114.72;;;7.98;86.86
71105;BME280;58760;48.716;8.962;2023-04-01T07:44:37;95123.03;;;8.23;85.98
71105;BME280;58760;48.716;8.962;2023-04-01T07:47:14;95131.59;;;8.25;86.40
71105;BME280;58760;48.716;8.962;2023-04-01T07:57:55;95136.53;;;8.28;86.18
71105;BME280;58760;48.716;8.962;2023-04-01T08:00:33;95135.59;;;8.42;86.44
71105;BME280;58760;48.716;8.962;2023-04-01T08:03:31;95149.13;;;8.32;86.88
71105;BME280;58760;48.716;8.962;2023-04-01T08:08:46;95140.94;;;8.27;87.85
71105;BME280;58760;48.716;8.962;2023-04-01T08:14:04;95143.09;;;8.38;87.40
71105;BME280;58760;48.716;8.962;2023-04-01T08:22:45;95148.72;;;8.29;88.27
71105;BME280;58760;48.716;8.962;2023-04-01T08:25:20;95137.44;;;8.20;88.95
71105;BME280;58760;48.716;8.962;2023-04-01T08:27:51;95150.47;;;8.22;89.61
71105;BME280;58760;48.716;8.962;2023-04-01T08:30:26;95144.38;;;8.21;89.54
71105;BME280;58760;48.716;8.962;2023-04-01T08:35:29;95160.25;;;8.00;90.23
71105;BME280;58760;48.716;8.962;2023-04-01T08:38:01;95158.91;;;7.83;91.00
71105;BME280;58760;48.716;8.962;2023-04-01T08:40:35;95155.09;;;7.71;92.94
71105;BME280;58760;48.716;8.962;2023-04-01T08:45:52;95156.44;;;7.81;93.79
71105;BME280;58760;48.716;8.962;2023-04-01T08:48:40;95155.16;;;7.77;94.64
71105;BME280;58760;48.716;8.962;2023-04-01T08:56:53;95154.78;;;7.80;93.77
71105;BME280;58760;48.716;8.962;2023-04-01T08:59:35;95136.25;;;7.95;93.86
71105;BME280;58760;48.716;8.962;2023-04-01T09:08:31;95149.13;;;8.32;93.28
71105;BME280;58760;48.716;8.962;2023-04-01T09:12:02;95158.63;;;8.48;92.86
71105;BME280;58760;48.716;8.962;2023-04-01T09:28:19;95159.53;;;9.03;85.86
71105;BME280;58760;48.716;8.962;2023-04-01T09:34:21;95166.53;;;8.82;85.81
71105;BME280;58760;48.716;8.962;2023-04-01T09:36:43;95171.75;;;8.69;86.51
71105;BME280;58760;48.716;8.962;2023-04-01T09:39:34;95182.53;;;8.68;87.34
71105;BME280;58760;48.716;8.962;2023-04-01T09:42:16;95165.63;;;8.69;87.35
71105;BME280;58760;48.716;8.962;2023-04-01T09:44:59;95179.72;;;8.76;87.68
71105;BME280;58760;48.716;8.962;2023-04-01T09:56:19;95183.09;;;8.63;88.08
71105;BME280;58760;48.716;8.962;2023-04-01T10:01:45;95188.13;;;8.52;89.37
71105;BME280;58760;48.716;8.962;2023-04-01T10:04:42;95183.50;;;8.60;89.21
71105;BME280;58760;48.716;8.962;2023-04-01T10:10:07;95184.94;;;8.63;87.95
71105;BME280;58760;48.716;8.962;2023-04-01T10:13:21;95194.16;;;8.73;87.51
71105;BME280;58760;48.716;8.962;2023-04-01T10:18:53;95208.75;;;8.97;82.34
71105;BME280;58760;48.716;8.962;2023-04-01T10:21:37;95192.69;;;9.05;83.26
71105;BME280;58760;48.716;8.962;2023-04-01T10:30:05;95213.28;;;9.64;80.77
71105;BME280;58760;48.716;8.962;2023-04-01T10:46:57;95204.66;;;10.42;77.58
71105;BME280;58760;48.716;8.962;2023-04-01T10:49:41;95200.38;;;10.28;76.92
71105;BME280;58760;48.716;8.962;2023-04-01T11:15:17;95194.66;;;10.24;75.74
71105;BME280;58760;48.716;8.962;2023-04-01T11:28:57;95197.72;;;10.47;73.44
71105;BME280;58760;48.716;8.962;2023-04-01T11:31:44;95196.25;;;10.84;74.37
71105;BME280;58760;48.716;8.962;2023-04-01T11:34:49;95214.84;;;10.65;72.59
71105;BME280;58760;48.716;8.962;2023-04-01T11:40:26;95207.41;;;11.19;72.83
71105;BME280;58760;48.716;8.962;2023-04-01T11:43:22;95217.63;;;11.09;72.90
71105;BME280;58760;48.716;8.962;2023-04-01T11:46:07;95209.28;;;10.92;73.06
71105;BME280;58760;48.716;8.962;2023-04-01T11:48:47;95213.03;;;10.59;72.27
71105;BME280;58760;48.716;8.962;2023-04-01T11:54:09;95220.56;;;10.75;72.96
71105;BME280;58760;48.716;8.962;2023-04-01T11:56:55;95210.09;;;10.99;72.91
71105;BME280;58760;48.716;8.962;2023-04-01T12:05:21;95225.00;;;11.00;71.25
71105;BME280;58760;48.716;8.962;2023-04-01T12:13:42;95221.97;;;10.77;71.55
71105;BME280;58760;48.716;8.962;2023-04-01T12:24:45;95230.59;;;10.46;74.83
71105;BME280;58760;48.716;8.962;2023-04-01T12:30:22;95243.44;;;11.53;71.76
71105;BME280;58760;48.716;8.962;2023-04-01T12:38:18;95243.22;;;12.05;69.17
71105;BME280;58760;48.716;8.962;2023-04-01T12:41:05;95239.84;;;12.23;67.56
71105;BME280;58760;48.716;8.962;2023-04-01T12:43:48;95237.84;;;12.19;67.49
71105;BME280;58760;48.716;8.962;2023-04-01T12:47:00;95242.75;;;12.15;69.55
71105;BME280;58760;48.716;8.962;2023-04-01T12:55:55;95233.88;;;13.02;63.27
71105;BME280;58760;48.716;8.962;2023-04-01T13:03:47;95236.59;;;12.21;69.17
71105;BME280;58760;48.716;8.962;2023-04-01T13:06:38;95251.38;;;12.11;69.75
71105;BME280;58760;48.716;8.962;2023-04-01T13:17:22;95241.16;;;11.63;70.90
71105;BME280;58760;48.716;8.962;2023-04-01T13:19:59;95253.41;;;11.64;71.04
71105;BME280;58760;48.716;8.962;2023-04-01T13:22:49;95247.63;;;11.16;69.89
71105;BME280;58760;48.716;8.962;2023-04-01T13:25:36;95252.13;;;11.22;68.72
71105;BME280;58760;48.716;8.962;2023-04-01T13:30:53;95248.47;;;11.17;70.47
71105;BME280;58760;48.716;8.962;2023-04-01T13:33:28;95256.34;;;11.49;69.38
71105;BME280;58760;48.716;8.962;2023-04-01T13:41:11;95288.84;;;12.02;66.79
71105;BME280;58760;48.716;8.962;2023-04-01T13:43:43;95262.56;;;11.81;66.43
71105;BME280;58760;48.716;8.962;2023-04-01T13:54:00;95274.03;;;11.69;68.22
71105;BME280;58760;48.716;8.962;2023-04-01T13:56:57;95270.34;;;11.83;67.68
71105;BME280;58760;48.716;8.962;2023-04-01T13:59:40;95269.69;;;11.87;68.62
71105;BME280;58760;48.716;8.962;2023-04-01T14:22:26;95279.22;;;12.08;69.46
71105;BME280;58760;48.716;8.962;2023-04-01T14:30:30;95274.50;;;11.52;69.92
71105;BME280;58760;48.716;8.962;2023-04-01T14:35:40;95274.59;;;11.13;70.12
71105;BME280;58760;48.716;8.962;2023-04-01T14:38:35;95285.88;;;10.89;70.86
71105;BME280;58760;48.716;8.962;2023-04-01T14:41:27;95276.66;;;11.05;71.83
71105;BME280;58760;48.716;8.962;2023-04-01T14:44:29;95289.13;;;10.91;69.39
71105;BME280;58760;48.716;8.962;2023-04-01T14:49:35;95293.81;;;11.09;69.83
71105;BME280;58760;48.716;8.962;2023-04-01T14:52:16;95285.66;;;10.97;70.53
71105;BME280;58760;48.716;8.962;2023-04-01T14:54:48;95291.47;;;11.51;69.20
71105;BME280;58760;48.716;8.962;2023-04-01T14:57:29;95282.38;;;11.08;71.02
71105;BME280;58760;48.716;8.962;2023-04-01T15:02:46;95292.19;;;11.08;70.51
71105;BME280;58760;48.716;8.962;2023-04-01T15:05:32;95295.44;;;10.96;71.08
71105;BME280;58760;48.716;8.962;2023-04-01T15:08:26;95289.72;;;10.93;71.51
71105;BME280;58760;48.716;8.962;2023-04-01T15:16:34;95305.25;;;11.02;72.52
71105;BME280;58760;48.716;8.962;2023-04-01T15:27:56;95306.47;;;10.93;71.79
71105;BME280;58760;48.716;8.962;2023-04-01T15:30:29;95323.63;;;10.91;71.94
71105;BME280;58760;48.716;8.962;2023-04-01T15:38:40;95332.59;;;11.10;70.44
71105;BME280;58760;48.716;8.962;2023-04-01T15:41:15;95329.34;;;10.94;71.82
71105;BME280;58760;48.716;8.962;2023-04-01T15:43:48;95328.31;;;10.49;72.43
71105;BME280;58760;48.716;8.962;2023-04-01T15:49:11;95343.75;;;10.26;75.41
71105;BME280;58760;48.716;8.962;2023-04-01T15:52:03;95338.34;;;10.07;76.21
71105;BME280;58760;48.716;8.962;2023-04-01T15:57:41;95345.78;;;9.77;78.06
71105;BME280;58760;48.716;8.962;2023-04-01T16:00:21;95356.09;;;9.59;79.39
71105;BME280;58760;48.716;8.962;2023-04-01T16:03:18;95348.28;;;9.51;81.15
71105;BME280;58760;48.716;8.962;2023-04-01T16:11:52;95336.50;;;9.60;79.55
71105;BME280;58760;48.716;8.962;2023-04-01T16:22:24;95329.13;;;9.89;77.71
71105;BME280;58760;48.716;8.962;2023-04-01T16:25:05;95333.19;;;9.92;78.34
71105;BME280;58760;48.716;8.962;2023-04-01T16:27:53;95333.25;;;10.05;78.09
71105;BME280;58760;48.716;8.962;2023-04-01T16:30:26;95332.91;;;10.21;78.66
71105;BME280;58760;48.716;8.962;2023-04-01T16:33:04;95343.94;;;10.25;78.12
71105;BME280;58760;48.716;8.962;2023-04-01T16:35:53;95347.81;;;10.22;77.86
71105;BME280;58760;48.716;8.962;2023-04-01T16:38:43;95344.88;;;10.04;77.78
71105;BME280;58760;48.716;8.962;2023-04-01T16:41:19;95351.97;;;9.97;77.47
71105;BME280;58760;48.716;8.962;2023-04-01T16:43:51;95348.66;;;9.88;78.53
71105;BME280;58760;48.716;8.962;2023-04-01T16:46:35;95350.72;;;9.86;77.44
71105;BME280;58760;48.716;8.962;2023-04-01T16:56:55;95358.84;;;9.78;78.21
71105;BME280;58760;48.716;8.962;2023-04-01T16:59:35;95354.19;;;9.87;77.36
71105;BME280;58760;48.716;8.962;2023-04-01T17:21:20;95377.22;;;9.52;78.14
71105;BME280;58760;48.716;8.962;2023-04-01T17:23:53;95370.50;;;9.56;78.49
71105;BME280;58760;48.716;8.962;2023-04-01T17:27:14;95376.41;;;9.52;77.96
71105;BME280;58760;48.716;8.962;2023-04-01T17:41:03;95398.13;;;9.40;79.53
71105;BME280;58760;48.716;8.962;2023-04-01T17:43:48;95390.59;;;9.44;79.01
71105;BME280;58760;48.716;8.962;2023-04-01T17:58:02;95429.88;;;9.13;84.28
71105;BME280;58760;48.716;8.962;2023-04-01T18:00:38;95435.88;;;9.00;84.73
71105;BME280;58760;48.716;8.962;2023-04-01T18:20:08;95463.53;;;7.97;89.27
71105;BME280;58760;48.716;8.962;2023-04-01T18:22:42;95464.66;;;7.87;87.71
71105;BME280;58760;48.716;8.962;2023-04-01T18:25:38;95469.00;;;7.66;89.13
71105;BME280;58760;48.716;8.962;2023-04-01T18:36:56;95477.41;;;7.32;91.27
71105;BME280;58760;48.716;8.962;2023-04-01T18:39:46;95479.16;;;7.25;92.21
71105;BME280;58760;48.716;8.962;2023-04-01T18:44:53;95486.06;;;7.03;94.16
71105;BME280;58760;48.716;8.962;2023-04-01T18:47:44;95497.84;;;7.15;92.18
71105;BME280;58760;48.716;8.962;2023-04-01T18:52:57;95492.81;;;6.83;96.17
71105;BME280;58760;48.716;8.962;2023-04-01T18:55:34;95506.53;;;6.78;96.20
71105;BME280;58760;48.716;8.962;2023-04-01T19:01:25;95491.91;;;6.99;91.54
71105;BME280;58760;48.716;8.962;2023-04-01T19:04:01;95491.69;;;7.00;91.33
71105;BME280;58760;48.716;8.962;2023-04-01T19:06:34;95492.69;;;6.99;90.93
71105;BME280;58760;48.716;8.962;2023-04-01T19:12:09;95493.38;;;7.16;90.46
71105;BME280;58760;48.716;8.962;2023-04-01T19:15:00;95495.97;;;7.01;90.36
71105;BME280;58760;48.716;8.962;2023-04-01T19:20:42;95505.19;;;7.05;91.32
71105;BME280;58760;48.716;8.962;2023-04-01T19:26:03;95503.22;;;6.99;92.50
71105;BME280;58760;48.716;8.962;2023-04-01T19:40:10;95497.28;;;7.05;91.46
71105;BME280;58760;48.716;8.962;2023-04-01T19:43:00;95491.81;;;7.07;91.15
71105;BME280;58760;48.716;8.962;2023-04-01T19:46:01;95496.34;;;6.98;91.44
71105;BME280;58760;48.716;8.962;2023-04-01T19:51:26;95514.97;;;6.97;91.75
71105;BME280;58760;48.716;8.962;2023-04-01T19:54:20;95534.63;;;6.86;91.24
71105;BME280;58760;48.716;8.962;2023-04-01T19:59:29;95522.75;;;6.90;91.74
71105;BME280;58760;48.716;8.962;2023-04-01T20:02:17;95528.34;;;6.95;91.09
71105;BME280;58760;48.716;8.962;2023-04-01T20:04:50;95525.97;;;7.00;91.07
71105;BME280;58760;48.716;8.962;2023-04-01T20:07:24;95527.97;;;6.98;91.17
71105;BME280;58760;48.716;8.962;2023-04-01T20:17:48;95535.22;;;7.19;89.86
71105;BME280;58760;48.716;8.962;2023-04-01T20:20:21;95547.94;;;7.15;89.87
71105;BME280;58760;48.716;8.962;2023-04-01T20:23:01;95546.25;;;7.22;89.71
71105;BME280;58760;48.716;8.962;2023-04-01T20:25:40;95550.25;;;7.18;90.11
71105;BME280;58760;48.716;8.962;2023-04-01T20:28:22;95552.19;;;7.24;90.54
71105;BME280;58760;48.716;8.962;2023-04-01T20:34:04;95561.72;;;7.25;90.32
71105;BME280;58760;48.716;8.962;2023-04-01T20:37:00;95562.91;;;7.46;90.38
71105;BME280;58760;48.716;8.962;2023-04-01T20:39:40;95568.66;;;7.49;90.23
71105;BME280;58760;48.716;8.962;2023-04-01T20:48:04;95580.50;;;7.53;90.17
71105;BME280;58760;48.716;8.962;2023-04-01T20:50:50;95572.38;;;7.55;89.33
71105;BME280;58760;48.716;8.962;2023-04-01T20:53:36;95574.97;;;7.63;89.98
71105;BME280;58760;48.716;8.962;2023-04-01T20:59:02;95581.63;;;7.36;90.88
71105;BME280;58760;48.716;8.962;2023-04-01T21:01:46;95593.38;;;7.48;90.15
71105;BME280;58760;48.716;8.962;2023-04-01T21:04:27;95582.91;;;7.40;90.95
71105;BME280;58760;48.716;8.962;2023-04-01T21:07:01;95584.22;;;7.44;89.81
71105;BME280;58760;48.716;8.962;2023-04-01T21:15:46;95578.69;;;7.54;90.34
71105;BME280;58760;48.716;8.962;2023-04-01T21:18:29;95577.19;;;7.51;89.98
71105;BME280;58760;48.716;8.962;2023-04-01T21:30:01;95585.59;;;7.55;86.92